createdAt,value
2022-08-05T00:01:35.477Z,32.80
2022-08-05T00:06:39.943Z,32.80
2022-08-05T00:11:48.300Z,32.70
2022-08-05T00:16:54.060Z,32.60
2022-08-05T00:21:57.592Z,32.60
2022-08-05T00:27:01.329Z,32.60
2022-08-05T00:32:15.276Z,32.50
2022-08-05T00:37:19.212Z,32.50
2022-08-05T00:42:32.669Z,32.40
2022-08-05T00:47:56.834Z,32.40
2022-08-05T00:53:01.007Z,32.30
2022-08-05T00:58:04.856Z,32.20
2022-08-05T01:03:10.563Z,32.20
2022-08-05T01:08:39.126Z,32.10
2022-08-05T01:13:59.779Z,32.10
2022-08-05T01:19:17.088Z,32.00
2022-08-05T01:24:36.181Z,32.00
2022-08-05T01:29:46.805Z,32.00
2022-08-05T01:34:55.876Z,31.90
2022-08-05T01:40:02.122Z,31.80
2022-08-05T01:45:09.314Z,31.80
2022-08-05T01:50:18.606Z,31.80
2022-08-05T01:55:36.328Z,31.70
2022-08-05T02:00:45.894Z,31.70
2022-08-05T02:05:50.237Z,31.60
2022-08-05T02:11:03.608Z,31.60
2022-08-05T02:16:22.141Z,31.60
2022-08-05T02:21:37.994Z,31.50
2022-08-05T02:26:51.884Z,31.50
2022-08-05T02:31:59.507Z,31.40
2022-08-05T02:37:11.462Z,31.40
2022-08-05T02:42:25.688Z,31.40
2022-08-05T02:48:06.465Z,31.40
2022-08-05T02:52:55.503Z,31.30
2022-08-05T02:58:09.460Z,31.30
2022-08-05T03:03:20.172Z,31.20
2022-08-05T03:08:30.018Z,31.20
2022-08-05T03:13:51.177Z,31.20
2022-08-05T03:18:58.153Z,31.10
2022-08-05T03:24:02.533Z,31.10
2022-08-05T03:29:06.703Z,31.10
2022-08-05T03:34:17.278Z,31.10
2022-08-05T03:39:27.255Z,31.00
2022-08-05T03:44:31.157Z,31.00
2022-08-05T03:49:51.687Z,31.00
2022-08-05T03:56:05.294Z,30.90
2022-08-05T04:00:26.729Z,30.90
2022-08-05T04:05:34.846Z,30.90
2022-08-05T04:10:39.213Z,30.80
2022-08-05T04:16:02.764Z,30.80
2022-08-05T04:21:10.936Z,30.80
2022-08-05T04:26:15.413Z,30.80
2022-08-05T04:31:21.543Z,30.80
2022-08-05T04:36:49.626Z,30.70
2022-08-05T04:41:51.234Z,30.70
2022-08-05T04:46:54.690Z,30.70
2022-08-05T04:52:00.423Z,30.80
2022-08-05T04:57:04.135Z,30.70
2022-08-05T05:02:36.136Z,30.70
2022-08-05T05:07:35.625Z,30.70
2022-08-05T05:12:39.543Z,30.80
2022-08-05T05:17:57.193Z,30.80
2022-08-05T05:23:08.096Z,30.80
2022-08-05T05:28:13.154Z,30.80
2022-08-05T05:33:17.556Z,30.80
2022-08-05T05:38:27.102Z,30.90
2022-08-05T05:43:56.892Z,30.90
2022-08-05T05:48:54.357Z,31.00
2022-08-05T05:54:00.089Z,31.10
2022-08-05T05:59:05.322Z,31.10
2022-08-05T06:04:11.870Z,31.20
2022-08-05T06:09:24.922Z,31.20
2022-08-05T06:14:31.190Z,31.20
2022-08-05T06:19:35.705Z,31.30
2022-08-05T06:24:48.114Z,31.30
2022-08-05T06:30:04.259Z,31.40
2022-08-05T06:35:21.689Z,31.40
2022-08-05T06:40:42.141Z,31.50
2022-08-05T06:46:03.999Z,31.50
2022-08-05T06:51:11.991Z,31.50
2022-08-05T06:56:29.106Z,31.60
2022-08-05T07:01:33.147Z,31.70
2022-08-05T07:06:36.698Z,31.70
2022-08-05T07:11:41.337Z,31.80
2022-08-05T07:17:56.351Z,31.90
2022-08-05T07:22:15.788Z,32.00
2022-08-05T07:27:21.582Z,32.20
2022-08-05T07:32:26.321Z,32.20
2022-08-05T07:37:29.791Z,32.30
2022-08-05T07:42:42.480Z,32.50
2022-08-05T07:47:47.418Z,32.50
2022-08-05T07:52:50.713Z,32.70
2022-08-05T07:58:02.823Z,32.80
2022-08-05T08:03:14.598Z,32.90
2022-08-05T08:08:20.093Z,33.10
2022-08-05T08:13:29.042Z,33.30
2022-08-05T08:18:32.846Z,33.50
2022-08-05T08:24:02.637Z,33.60
2022-08-05T08:30:03.397Z,33.80
2022-08-05T08:34:30.285Z,34.00
2022-08-05T08:39:37.201Z,34.20
2022-08-05T08:45:19.091Z,34.40
2022-08-05T08:50:30.580Z,34.60
2022-08-05T08:56:04.083Z,34.80
2022-08-05T09:00:57.602Z,35.00
2022-08-05T09:06:08.911Z,35.20
2022-08-05T09:11:15.352Z,35.50
2022-08-05T09:16:21.123Z,35.60
2022-08-05T09:22:23.040Z,35.80
2022-08-05T09:26:57.003Z,36.10
2022-08-05T09:32:51.103Z,36.20
2022-08-05T09:38:16.773Z,36.50
2022-08-05T09:42:55.867Z,36.70
2022-08-05T09:48:01.008Z,36.90
2022-08-05T09:53:04.300Z,37.10
2022-08-05T09:58:12.374Z,37.30
2022-08-05T10:03:17.203Z,37.50
2022-08-05T10:08:37.676Z,37.80
2022-08-05T10:13:45.741Z,38.00
2022-08-05T10:18:52.846Z,38.30
2022-08-05T10:24:00.295Z,38.50
2022-08-05T10:29:04.539Z,38.80
2022-08-05T10:34:10.410Z,39.10
2022-08-05T10:39:24.847Z,39.30
2022-08-05T10:44:46.466Z,39.60
2022-08-05T10:50:31.980Z,39.80
2022-08-05T10:55:32.734Z,40.00
2022-08-05T11:00:47.588Z,40.30
2022-08-05T11:06:14.634Z,40.50
2022-08-05T11:11:44.348Z,40.70
2022-08-05T11:18:00.451Z,41.00
2022-08-05T11:22:57.985Z,41.20
2022-08-05T11:28:44.362Z,41.50
2022-08-05T11:33:56.021Z,41.60
2022-08-05T11:39:03.410Z,41.80
2022-08-05T11:44:10.937Z,42.00
2022-08-05T11:49:16.339Z,42.10
2022-08-05T11:54:33.706Z,42.20
2022-08-05T11:59:49.387Z,42.30
2022-08-05T12:04:59.175Z,42.50
2022-08-05T12:10:09.277Z,42.50
2022-08-05T12:15:28.168Z,42.60
2022-08-05T12:20:41.950Z,42.70
2022-08-05T12:25:56.735Z,42.70
2022-08-05T12:31:02.282Z,42.80
2022-08-05T12:36:08.874Z,42.80
2022-08-05T12:41:16.878Z,42.90
2022-08-05T12:46:28.802Z,42.90
2022-08-05T12:52:12.541Z,43.00
2022-08-05T12:57:01.066Z,43.10
2022-08-05T13:02:07.904Z,43.10
2022-08-05T13:07:16.136Z,43.20
2022-08-05T13:12:28.576Z,43.20
2022-08-05T13:17:41.444Z,43.30
2022-08-05T13:22:50.639Z,43.40
2022-08-05T13:27:57.451Z,43.40
2022-08-05T13:33:02.181Z,43.40
2022-08-05T13:38:06.046Z,43.50
2022-08-05T13:43:12.171Z,43.60
2022-08-05T13:48:58.358Z,43.50
2022-08-05T13:53:47.795Z,43.60
2022-08-05T13:58:53.955Z,43.60
2022-08-05T14:04:14.448Z,43.60
2022-08-05T14:09:18.358Z,43.70
2022-08-05T14:14:32.329Z,43.70
2022-08-05T14:19:55.242Z,43.70
2022-08-05T14:25:00.452Z,43.70
2022-08-05T14:30:05.916Z,43.70
2022-08-05T14:35:37.353Z,43.70
2022-08-05T14:40:48.236Z,43.70
2022-08-05T14:45:53.295Z,43.70
2022-08-05T14:50:56.949Z,43.60
2022-08-05T14:56:00.406Z,43.50
2022-08-05T15:01:05.329Z,43.40
2022-08-05T15:06:19.761Z,43.20
2022-08-05T15:11:51.903Z,43.10
2022-08-05T15:16:56.762Z,42.90
2022-08-05T15:22:01.301Z,42.70
2022-08-05T15:27:04.955Z,42.60
2022-08-05T15:32:14.143Z,42.40
2022-08-05T15:38:32.797Z,42.20
2022-08-05T15:42:54.786Z,42.10
2022-08-05T15:48:04.324Z,41.90
2022-08-05T15:53:09.219Z,41.70
2022-08-05T15:58:16.730Z,41.50
2022-08-05T16:03:21.981Z,41.40
2022-08-05T16:08:25.261Z,41.30
2022-08-05T16:13:34.936Z,41.10
2022-08-05T16:18:52.408Z,41.10
2022-08-05T16:24:00.155Z,40.90
2022-08-05T16:29:06.358Z,40.80
2022-08-05T16:34:13.082Z,40.70
2022-08-05T16:39:18.666Z,40.60
2022-08-05T16:44:25.762Z,40.50
2022-08-05T16:49:30.810Z,40.40
2022-08-05T16:54:34.122Z,40.40
2022-08-05T16:59:49.590Z,40.30
2022-08-05T17:05:02.127Z,40.20
2022-08-05T17:10:05.893Z,40.20
2022-08-05T17:15:09.807Z,40.00
2022-08-05T17:20:20.398Z,40.00
2022-08-05T17:25:39.588Z,39.90
2022-08-05T17:30:50.735Z,39.80
2022-08-05T17:36:08.983Z,39.80
2022-08-05T17:42:16.942Z,39.70
2022-08-05T17:46:36.815Z,39.60
2022-08-05T17:51:41.659Z,39.60
2022-08-05T17:56:45.049Z,39.50
2022-08-05T18:01:52.444Z,39.40
2022-08-05T18:07:00.302Z,39.40
2022-08-05T18:12:04.927Z,39.30
2022-08-05T18:18:01.596Z,39.20
2022-08-05T18:22:46.182Z,39.10
2022-08-05T18:27:56.362Z,39.00
2022-08-05T18:33:01.025Z,39.00
2022-08-05T18:38:06.032Z,38.90
2022-08-05T18:43:16.614Z,38.90
2022-08-05T18:48:31.193Z,38.80
2022-08-05T18:53:42.961Z,38.70
2022-08-05T18:58:50.865Z,38.60
2022-08-05T19:03:57.179Z,38.50
2022-08-05T19:09:02.087Z,38.40
2022-08-05T19:14:37.518Z,38.30
2022-08-05T19:19:31.116Z,38.30
2022-08-05T19:24:36.420Z,38.10
2022-08-05T19:29:40.292Z,38.10
2022-08-05T19:34:55.317Z,38.00
2022-08-05T19:40:01.128Z,37.90
2022-08-05T19:45:06.666Z,37.80
2022-08-05T19:50:12.128Z,37.70
2022-08-05T19:56:13.856Z,37.60
2022-08-05T20:00:40.924Z,37.50
2022-08-05T20:05:51.406Z,37.40
2022-08-05T20:10:58.192Z,37.30
2022-08-05T20:16:01.812Z,37.20
2022-08-05T20:21:08.269Z,37.10
2022-08-05T20:26:16.224Z,37.00
2022-08-05T20:31:21.385Z,36.90
2022-08-05T20:36:26.654Z,36.80
2022-08-05T20:41:44.371Z,36.60
2022-08-05T20:46:48.911Z,36.60
2022-08-05T20:51:53.351Z,36.50
2022-08-05T20:56:58.964Z,36.40
2022-08-05T21:02:02.418Z,36.30
2022-08-05T21:07:08.924Z,36.30
2022-08-05T21:12:13.661Z,36.20
2022-08-05T21:17:20.466Z,36.10
2022-08-05T21:22:25.462Z,36.00
2022-08-05T21:27:38.883Z,35.90
2022-08-05T21:32:42.486Z,35.80
2022-08-05T21:37:47.395Z,35.80
2022-08-05T21:42:59.061Z,35.70
2022-08-05T21:48:06.263Z,35.60
2022-08-05T21:53:17.399Z,35.60
2022-08-05T21:58:24.853Z,35.60
2022-08-05T22:03:52.659Z,35.50
2022-08-05T22:08:56.949Z,35.40
2022-08-05T22:14:19.561Z,35.30
2022-08-05T22:20:03.522Z,35.20
2022-08-05T22:25:17.659Z,35.20
2022-08-05T22:30:32.166Z,35.20
2022-08-05T22:35:47.986Z,35.20
2022-08-05T22:40:54.921Z,35.10
2022-08-05T22:46:00.299Z,35.10
2022-08-05T22:51:06.858Z,35.10
2022-08-05T22:56:10.553Z,35.10
2022-08-05T23:01:17.858Z,35.00
2022-08-05T23:06:26.241Z,35.00
2022-08-05T23:11:29.961Z,35.00
2022-08-05T23:16:53.370Z,35.00
2022-08-05T23:21:56.634Z,35.00
2022-08-05T23:27:00.000Z,35.00
2022-08-05T23:32:06.026Z,35.00
2022-08-05T23:37:09.383Z,35.00
2022-08-05T23:42:14.769Z,35.00
2022-08-05T23:47:28.274Z,34.90
2022-08-05T23:52:49.787Z,35.00
2022-08-05T23:57:54.300Z,35.00
